createdAt,value
2022-09-14T00:01:44.539Z,12.07
2022-09-14T00:04:19.348Z,12.08
2022-09-14T00:06:48.278Z,12.05
2022-09-14T00:09:24.480Z,12.05
2022-09-14T00:11:53.218Z,12.04
2022-09-14T00:14:22.887Z,12.03
2022-09-14T00:16:52.373Z,12.04
2022-09-14T00:19:24.748Z,12.05
2022-09-14T00:21:55.930Z,11.96
2022-09-14T00:24:28.399Z,11.92
2022-09-14T00:26:57.168Z,11.91
2022-09-14T00:29:25.904Z,11.88
2022-09-14T00:31:55.391Z,11.83
2022-09-14T00:34:24.470Z,11.85
2022-09-14T00:36:53.208Z,11.87
2022-09-14T00:39:24.239Z,11.88
2022-09-14T00:41:53.193Z,11.90
2022-09-14T00:44:22.858Z,11.91
2022-09-14T00:46:55.970Z,11.89
2022-09-14T00:49:29.038Z,11.88
2022-09-14T00:52:22.192Z,11.84
2022-09-14T00:54:57.052Z,11.89
2022-09-14T00:57:30.794Z,11.91
2022-09-14T00:59:59.808Z,11.94
2022-09-14T01:02:30.150Z,11.95
2022-09-14T01:04:59.133Z,11.95
2022-09-14T01:08:03.797Z,11.93
2022-09-14T01:11:02.115Z,11.94
2022-09-14T01:14:33.866Z,11.93
2022-09-14T01:17:15.159Z,11.97
2022-09-14T01:20:06.436Z,12.00
2022-09-14T01:22:45.619Z,12.03
2022-09-14T01:25:29.283Z,12.01
2022-09-14T01:28:01.425Z,12.00
2022-09-14T01:30:33.965Z,12.01
2022-09-14T01:33:28.754Z,12.00
2022-09-14T01:36:01.784Z,11.98
2022-09-14T01:38:38.213Z,12.00
2022-09-14T01:41:12.969Z,12.05
2022-09-14T01:43:55.405Z,12.10
2022-09-14T01:46:49.131Z,12.15
2022-09-14T01:49:30.425Z,12.22
2022-09-14T01:52:21.931Z,12.31
2022-09-14T01:54:57.743Z,12.39
2022-09-14T01:57:56.682Z,12.44
2022-09-14T02:00:27.225Z,12.49
2022-09-14T02:03:12.740Z,12.51
2022-09-14T02:06:16.310Z,12.53
2022-09-14T02:08:45.181Z,12.54
2022-09-14T02:11:13.853Z,12.54
2022-09-14T02:13:42.884Z,12.54
2022-09-14T02:16:12.567Z,12.54
2022-09-14T02:18:43.782Z,12.55
2022-09-14T02:21:23.363Z,12.57
2022-09-14T02:23:52.412Z,12.58
2022-09-14T02:26:23.387Z,12.58
2022-09-14T02:28:56.322Z,12.57
2022-09-14T02:31:54.199Z,12.57
2022-09-14T02:35:01.683Z,12.53
2022-09-14T02:38:13.991Z,12.40
2022-09-14T02:41:10.263Z,12.31
2022-09-14T02:44:14.910Z,12.24
2022-09-14T02:47:15.243Z,12.24
2022-09-14T02:50:02.794Z,12.22
2022-09-14T02:53:05.375Z,12.22
2022-09-14T02:55:44.044Z,12.21
2022-09-14T02:58:15.285Z,12.16
2022-09-14T03:00:49.700Z,12.17
2022-09-14T03:03:21.486Z,12.22
2022-09-14T03:05:50.159Z,12.26
2022-09-14T03:08:18.783Z,12.28
2022-09-14T03:10:47.788Z,12.29
2022-09-14T03:13:16.437Z,12.36
2022-09-14T03:15:45.272Z,12.40
2022-09-14T03:18:14.690Z,12.43
2022-09-14T03:20:44.118Z,12.47
2022-09-14T03:23:14.497Z,12.51
2022-09-14T03:25:44.921Z,12.51
2022-09-14T03:28:13.631Z,12.53
2022-09-14T03:30:42.258Z,12.52
2022-09-14T03:33:10.850Z,12.51
2022-09-14T03:35:39.436Z,12.50
2022-09-14T03:38:08.820Z,12.53
2022-09-14T03:40:39.235Z,12.52
2022-09-14T03:43:09.200Z,12.55
2022-09-14T03:45:38.511Z,12.53
2022-09-14T03:48:07.617Z,12.51
2022-09-14T03:50:36.407Z,12.50
2022-09-14T03:53:05.357Z,12.51
2022-09-14T03:55:42.461Z,12.53
2022-09-14T03:58:14.099Z,12.58
2022-09-14T04:00:51.973Z,12.55
2022-09-14T04:03:21.360Z,12.58
2022-09-14T04:05:59.601Z,12.59
2022-09-14T04:08:58.318Z,12.63
2022-09-14T04:11:41.280Z,12.67
2022-09-14T04:14:28.954Z,12.72
2022-09-14T04:17:43.565Z,12.74
2022-09-14T04:20:15.021Z,12.82
2022-09-14T04:22:43.696Z,12.84
2022-09-14T04:25:12.704Z,12.85
2022-09-14T04:27:46.082Z,12.85
2022-09-14T04:30:20.234Z,12.90
2022-09-14T04:32:49.245Z,12.97
2022-09-14T04:35:19.008Z,13.02
2022-09-14T04:37:47.801Z,13.09
2022-09-14T04:40:16.870Z,13.16
2022-09-14T04:42:50.292Z,13.23
2022-09-14T04:45:28.679Z,13.30
2022-09-14T04:48:00.862Z,13.38
2022-09-14T04:50:43.803Z,13.42
2022-09-14T04:53:12.626Z,13.50
2022-09-14T04:55:41.326Z,13.53
2022-09-14T04:58:30.373Z,13.57
2022-09-14T05:01:04.890Z,13.57
2022-09-14T05:03:39.627Z,13.62
2022-09-14T05:06:12.672Z,13.66
2022-09-14T05:08:42.454Z,13.77
2022-09-14T05:11:17.055Z,13.76
2022-09-14T05:13:49.927Z,13.76
2022-09-14T05:16:23.308Z,13.79
2022-09-14T05:19:04.254Z,13.81
2022-09-14T05:21:36.153Z,13.84
2022-09-14T05:24:14.960Z,13.92
2022-09-14T05:26:45.110Z,14.03
2022-09-14T05:29:16.258Z,14.11
2022-09-14T05:31:46.144Z,14.22
2022-09-14T05:34:16.679Z,14.31
2022-09-14T05:36:45.929Z,14.39
2022-09-14T05:39:14.540Z,14.46
2022-09-14T05:41:43.073Z,14.56
2022-09-14T05:44:15.425Z,14.62
2022-09-14T05:46:44.135Z,14.67
2022-09-14T05:49:13.002Z,14.77
2022-09-14T05:51:41.830Z,14.86
2022-09-14T05:54:11.775Z,14.91
2022-09-14T05:56:40.805Z,15.02
2022-09-14T05:59:11.008Z,15.09
2022-09-14T06:01:40.237Z,15.17
2022-09-14T06:04:11.157Z,15.26
2022-09-14T06:06:39.826Z,15.34
2022-09-14T06:09:08.619Z,15.41
2022-09-14T06:11:37.190Z,15.48
2022-09-14T06:14:07.671Z,15.55
2022-09-14T06:16:36.370Z,15.61
2022-09-14T06:19:05.395Z,15.73
2022-09-14T06:21:35.818Z,15.77
2022-09-14T06:24:04.949Z,15.83
2022-09-14T06:26:33.649Z,15.91
2022-09-14T06:29:02.468Z,15.98
2022-09-14T06:31:31.020Z,16.05
2022-09-14T06:34:02.055Z,16.08
2022-09-14T06:36:30.924Z,16.15
2022-09-14T06:39:00.498Z,16.22
2022-09-14T06:41:30.944Z,16.29
2022-09-14T06:44:01.980Z,16.38
2022-09-14T06:46:33.941Z,16.45
2022-09-14T06:49:08.285Z,16.52
2022-09-14T06:51:41.164Z,16.59
2022-09-14T06:54:12.845Z,16.69
2022-09-14T06:56:45.161Z,16.79
2022-09-14T06:59:17.091Z,16.89
2022-09-14T07:01:46.397Z,16.99
2022-09-14T07:04:15.061Z,17.09
2022-09-14T07:06:47.925Z,17.22
2022-09-14T07:09:19.656Z,17.33
2022-09-14T07:11:49.426Z,17.44
2022-09-14T07:14:20.309Z,17.53
2022-09-14T07:16:48.857Z,17.62
2022-09-14T07:19:17.344Z,17.68
2022-09-14T07:21:47.028Z,17.78
2022-09-14T07:24:15.901Z,17.85
2022-09-14T07:26:44.614Z,17.89
2022-09-14T07:29:18.265Z,17.97
2022-09-14T07:31:54.481Z,18.07
2022-09-14T07:34:24.047Z,18.14
2022-09-14T07:36:52.556Z,18.19
2022-09-14T07:39:21.253Z,18.28
2022-09-14T07:41:52.298Z,18.34
2022-09-14T07:44:20.816Z,18.45
2022-09-14T07:46:49.382Z,18.52
2022-09-14T07:49:18.425Z,18.61
2022-09-14T07:51:47.077Z,18.70
2022-09-14T07:54:18.755Z,18.78
2022-09-14T07:56:50.797Z,18.87
2022-09-14T07:59:37.232Z,18.96
2022-09-14T08:02:11.353Z,19.09
2022-09-14T08:04:39.948Z,19.16
2022-09-14T08:07:09.305Z,19.20
2022-09-14T08:09:39.787Z,19.30
2022-09-14T08:12:08.410Z,19.32
2022-09-14T08:14:37.213Z,19.35
2022-09-14T08:17:05.842Z,19.45
2022-09-14T08:19:34.357Z,19.47
2022-09-14T08:22:04.856Z,19.50
2022-09-14T08:24:33.772Z,19.52
2022-09-14T08:27:03.284Z,19.59
2022-09-14T08:29:34.353Z,19.68
2022-09-14T08:32:03.206Z,19.66
2022-09-14T08:34:32.782Z,19.68
2022-09-14T08:37:01.201Z,19.69
2022-09-14T08:39:29.762Z,19.76
2022-09-14T08:42:00.659Z,19.83
2022-09-14T08:44:43.532Z,19.86
2022-09-14T08:47:22.231Z,19.83
2022-09-14T08:50:11.580Z,19.90
2022-09-14T08:52:55.829Z,19.97
2022-09-14T08:55:34.286Z,19.98
2022-09-14T08:58:42.671Z,20.06
2022-09-14T09:01:35.971Z,20.10
2022-09-14T09:04:20.800Z,20.02
2022-09-14T09:07:22.318Z,20.10
2022-09-14T09:09:54.483Z,20.16
2022-09-14T09:12:54.646Z,20.24
2022-09-14T09:15:45.379Z,20.29
2022-09-14T09:18:37.541Z,20.36
2022-09-14T09:21:24.203Z,20.44
2022-09-14T09:23:56.489Z,20.57
2022-09-14T09:26:30.016Z,20.68
2022-09-14T09:29:01.954Z,20.78
2022-09-14T09:31:55.034Z,20.88
2022-09-14T09:34:41.811Z,20.95
2022-09-14T09:37:26.677Z,21.02
2022-09-14T09:39:55.327Z,21.09
2022-09-14T09:42:28.364Z,21.10
2022-09-14T09:45:06.345Z,21.04
2022-09-14T09:47:40.452Z,21.04
2022-09-14T09:50:15.392Z,21.04
2022-09-14T09:53:03.240Z,21.16
2022-09-14T09:55:40.010Z,21.19
2022-09-14T09:58:32.311Z,21.16
2022-09-14T10:01:12.031Z,21.23
2022-09-14T10:03:41.421Z,21.26
2022-09-14T10:06:13.512Z,21.31
2022-09-14T10:08:45.899Z,21.29
2022-09-14T10:11:38.450Z,21.28
2022-09-14T10:14:21.585Z,21.37
2022-09-14T10:16:50.776Z,21.48
2022-09-14T10:19:29.384Z,21.61
2022-09-14T10:22:17.565Z,21.75
2022-09-14T10:25:21.453Z,21.84
2022-09-14T10:27:56.318Z,21.85
2022-09-14T10:30:37.650Z,21.80
2022-09-14T10:33:11.113Z,21.89
2022-09-14T10:36:12.169Z,21.94
2022-09-14T10:38:53.107Z,22.06
2022-09-14T10:41:45.692Z,22.19
2022-09-14T10:44:35.388Z,22.28
2022-09-14T10:47:25.172Z,22.43
2022-09-14T10:50:08.687Z,22.60
2022-09-14T10:53:20.359Z,22.72
2022-09-14T10:56:10.442Z,22.83
2022-09-14T10:59:15.804Z,22.82
2022-09-14T11:02:15.393Z,22.90
2022-09-14T11:05:08.573Z,22.86
2022-09-14T11:08:01.338Z,22.75
2022-09-14T11:11:19.712Z,22.72
2022-09-14T11:14:12.262Z,22.85
2022-09-14T11:16:55.116Z,22.92
2022-09-14T11:19:23.389Z,22.95
2022-09-14T11:22:06.224Z,23.08
2022-09-14T11:24:46.826Z,23.19
2022-09-14T11:27:36.094Z,23.25
2022-09-14T11:30:15.672Z,23.32
2022-09-14T11:33:11.731Z,23.37
2022-09-14T11:35:57.004Z,23.42
2022-09-14T11:38:31.726Z,23.46
2022-09-14T11:41:17.034Z,23.41
2022-09-14T11:44:16.292Z,23.39
2022-09-14T11:47:03.874Z,23.43
2022-09-14T11:49:59.344Z,23.52
2022-09-14T11:52:32.420Z,23.52
2022-09-14T11:55:09.342Z,23.56
2022-09-14T11:57:38.412Z,23.58
2022-09-14T12:00:50.375Z,23.59
2022-09-14T12:03:22.583Z,23.60
2022-09-14T12:05:51.331Z,23.65
2022-09-14T12:08:39.910Z,23.70
2022-09-14T12:11:08.547Z,23.77
2022-09-14T12:13:38.156Z,23.84
2022-09-14T12:16:10.539Z,23.87
2022-09-14T12:18:44.055Z,23.84
2022-09-14T12:21:26.358Z,23.90
2022-09-14T12:23:58.175Z,23.99
2022-09-14T12:26:32.649Z,23.97
2022-09-14T12:29:29.296Z,24.01
2022-09-14T12:32:05.412Z,24.14
2022-09-14T12:34:34.769Z,24.23
2022-09-14T12:37:32.664Z,24.30
2022-09-14T12:40:37.175Z,24.39
2022-09-14T12:43:33.904Z,24.41
2022-09-14T12:46:34.011Z,24.42
2022-09-14T12:49:31.877Z,24.52
2022-09-14T12:52:17.962Z,24.67
2022-09-14T12:55:09.219Z,24.89
2022-09-14T12:58:17.161Z,25.05
2022-09-14T13:00:53.094Z,25.25
2022-09-14T13:03:49.021Z,25.39
2022-09-14T13:06:18.993Z,25.41
2022-09-14T13:08:58.902Z,25.37
2022-09-14T13:11:41.450Z,25.43
2022-09-14T13:14:19.978Z,25.51
2022-09-14T13:16:52.307Z,25.58
2022-09-14T13:19:31.538Z,25.48
2022-09-14T13:22:02.960Z,25.46
2022-09-14T13:24:35.386Z,25.53
2022-09-14T13:27:05.282Z,25.60
2022-09-14T13:29:33.965Z,25.62
2022-09-14T13:32:04.086Z,25.52
2022-09-14T13:34:39.025Z,25.57
2022-09-14T13:37:08.098Z,25.59
2022-09-14T13:39:42.124Z,25.58
2022-09-14T13:42:10.935Z,25.48
2022-09-14T13:44:47.148Z,25.47
2022-09-14T13:47:25.343Z,25.41
2022-09-14T13:49:56.186Z,25.28
2022-09-14T13:52:34.296Z,25.18
2022-09-14T13:55:31.813Z,25.22
2022-09-14T13:58:19.354Z,25.17
2022-09-14T14:01:00.287Z,25.16
2022-09-14T14:03:48.214Z,25.11
2022-09-14T14:06:35.028Z,25.02
2022-09-14T14:09:09.624Z,25.04
2022-09-14T14:11:42.381Z,25.03
2022-09-14T14:14:16.865Z,25.00
2022-09-14T14:17:13.369Z,24.94
2022-09-14T14:19:43.843Z,24.92
2022-09-14T14:22:15.474Z,24.90
2022-09-14T14:25:11.715Z,24.82
2022-09-14T14:27:40.505Z,24.80
2022-09-14T14:30:20.567Z,24.76
2022-09-14T14:32:55.397Z,24.73
2022-09-14T14:35:31.789Z,24.72
2022-09-14T14:38:00.329Z,24.73
2022-09-14T14:40:29.178Z,24.76
2022-09-14T14:43:00.267Z,24.78
2022-09-14T14:45:32.204Z,24.80
2022-09-14T14:48:04.989Z,24.84
2022-09-14T14:50:36.248Z,24.86
2022-09-14T14:53:05.775Z,24.89
2022-09-14T14:55:36.184Z,24.86
2022-09-14T14:58:11.405Z,24.85
2022-09-14T15:00:40.006Z,24.83
2022-09-14T15:03:09.055Z,24.74
2022-09-14T15:05:44.181Z,24.73
2022-09-14T15:08:15.221Z,24.72
2022-09-14T15:10:43.952Z,24.65
2022-09-14T15:13:16.528Z,24.64
2022-09-14T15:15:45.267Z,24.53
2022-09-14T15:18:13.854Z,24.45
2022-09-14T15:20:42.428Z,24.39
2022-09-14T15:23:14.471Z,24.33
2022-09-14T15:25:43.215Z,24.30
2022-09-14T15:28:12.575Z,24.24
2022-09-14T15:30:41.956Z,24.16
2022-09-14T15:33:10.816Z,24.10
2022-09-14T15:35:39.923Z,24.04
2022-09-14T15:38:08.536Z,23.97
2022-09-14T15:40:37.877Z,23.90
2022-09-14T15:43:06.469Z,23.79
2022-09-14T15:45:35.200Z,23.69
2022-09-14T15:48:18.882Z,23.60
2022-09-14T15:50:48.956Z,23.52
2022-09-14T15:53:18.697Z,23.43
2022-09-14T15:55:48.157Z,23.35
2022-09-14T15:58:16.798Z,23.28
2022-09-14T16:00:45.529Z,23.20
2022-09-14T16:03:14.035Z,23.14
2022-09-14T16:05:42.696Z,23.06
2022-09-14T16:08:11.453Z,22.98
2022-09-14T16:10:40.062Z,22.91
2022-09-14T16:13:08.733Z,22.81
2022-09-14T16:15:37.343Z,22.75
2022-09-14T16:18:06.124Z,22.68
2022-09-14T16:20:36.364Z,22.60
2022-09-14T16:23:05.124Z,22.50
2022-09-14T16:25:43.415Z,22.42
2022-09-14T16:28:11.937Z,22.34
2022-09-14T16:30:40.584Z,22.20
2022-09-14T16:33:09.335Z,22.15
2022-09-14T16:35:37.981Z,22.05
2022-09-14T16:38:06.534Z,22.01
2022-09-14T16:40:35.944Z,21.93
2022-09-14T16:43:06.024Z,21.84
2022-09-14T16:45:34.666Z,21.79
2022-09-14T16:48:16.619Z,21.74
2022-09-14T16:50:45.296Z,21.64
2022-09-14T16:53:14.024Z,21.64
2022-09-14T16:55:42.780Z,21.60
2022-09-14T16:58:12.046Z,21.51
2022-09-14T17:00:44.137Z,21.50
2022-09-14T17:03:13.371Z,21.44
2022-09-14T17:05:42.625Z,21.43
2022-09-14T17:08:11.384Z,21.39
2022-09-14T17:10:42.890Z,21.35
2022-09-14T17:13:11.521Z,21.33
2022-09-14T17:15:40.074Z,21.31
2022-09-14T17:18:08.698Z,21.31
2022-09-14T17:20:37.757Z,21.27
2022-09-14T17:23:06.522Z,21.31
2022-09-14T17:25:38.348Z,21.30
2022-09-14T17:28:06.924Z,21.30
2022-09-14T17:30:35.525Z,21.28
2022-09-14T17:33:04.458Z,21.27
2022-09-14T17:35:33.586Z,21.26
2022-09-14T17:38:04.198Z,21.25
2022-09-14T17:40:34.737Z,21.22
2022-09-14T17:43:03.339Z,21.21
2022-09-14T17:45:50.872Z,21.19
2022-09-14T17:48:20.234Z,21.18
2022-09-14T17:50:49.514Z,21.15
2022-09-14T17:53:18.198Z,21.13
2022-09-14T17:55:52.286Z,21.10
2022-09-14T17:58:21.218Z,21.00
2022-09-14T18:00:50.608Z,21.04
2022-09-14T18:03:20.077Z,21.02
2022-09-14T18:05:56.745Z,20.98
2022-09-14T18:08:25.451Z,20.95
2022-09-14T18:10:54.073Z,20.88
2022-09-14T18:13:23.114Z,20.89
2022-09-14T18:15:58.323Z,20.92
2022-09-14T18:19:01.313Z,20.91
2022-09-14T18:21:31.169Z,20.87
2022-09-14T18:24:02.341Z,20.86
2022-09-14T18:26:31.348Z,20.85
2022-09-14T18:29:03.854Z,20.85
2022-09-14T18:31:32.908Z,20.83
2022-09-14T18:34:01.822Z,20.82
2022-09-14T18:36:32.021Z,20.79
2022-09-14T18:39:01.081Z,20.78
2022-09-14T18:41:31.660Z,20.74
2022-09-14T18:44:01.950Z,20.70
2022-09-14T18:46:31.229Z,20.72
2022-09-14T18:49:01.964Z,20.67
2022-09-14T18:51:34.539Z,20.68
2022-09-14T18:54:06.964Z,20.61
2022-09-14T18:56:37.088Z,20.61
2022-09-14T18:59:19.741Z,20.57
2022-09-14T19:01:48.397Z,20.53
2022-09-14T19:04:17.121Z,20.50
2022-09-14T19:06:45.874Z,20.43
2022-09-14T19:09:14.641Z,20.40
2022-09-14T19:11:43.270Z,20.39
2022-09-14T19:14:13.493Z,20.35
2022-09-14T19:16:42.521Z,20.30
2022-09-14T19:19:15.031Z,20.26
2022-09-14T19:21:45.199Z,20.23
2022-09-14T19:24:16.674Z,20.21
2022-09-14T19:26:51.732Z,20.14
2022-09-14T19:29:23.271Z,20.11
2022-09-14T19:31:53.549Z,20.12
2022-09-14T19:34:25.635Z,20.07
2022-09-14T19:36:55.545Z,20.05
2022-09-14T19:39:25.843Z,20.03
2022-09-14T19:41:54.498Z,20.00
2022-09-14T19:44:23.421Z,19.99
2022-09-14T19:46:52.413Z,19.98
2022-09-14T19:49:24.496Z,19.96
2022-09-14T19:51:53.919Z,19.97
2022-09-14T19:54:23.252Z,19.96
2022-09-14T19:56:51.951Z,19.97
2022-09-14T19:59:20.588Z,19.95
2022-09-14T20:01:49.781Z,19.93
2022-09-14T20:04:19.136Z,19.92
2022-09-14T20:06:48.456Z,19.90
2022-09-14T20:09:21.062Z,19.86
2022-09-14T20:11:51.732Z,19.83
2022-09-14T20:14:24.932Z,19.82
2022-09-14T20:16:58.198Z,19.80
2022-09-14T20:19:29.697Z,19.79
2022-09-14T20:21:58.544Z,19.79
2022-09-14T20:24:31.113Z,19.73
2022-09-14T20:27:02.296Z,19.68
2022-09-14T20:29:35.467Z,19.65
2022-09-14T20:32:06.028Z,19.62
2022-09-14T20:34:34.721Z,19.58
2022-09-14T20:37:03.300Z,19.53
2022-09-14T20:39:36.007Z,19.50
2022-09-14T20:42:05.692Z,19.46
2022-09-14T20:44:34.271Z,19.41
2022-09-14T20:47:02.809Z,19.43
2022-09-14T20:49:31.366Z,19.42
2022-09-14T20:52:02.627Z,19.40
2022-09-14T20:54:31.303Z,19.38
2022-09-14T20:57:04.066Z,19.38
2022-09-14T20:59:33.274Z,19.36
2022-09-14T21:02:09.948Z,19.35
2022-09-14T21:04:38.628Z,19.34
2022-09-14T21:07:07.158Z,19.31
2022-09-14T21:09:35.831Z,19.35
2022-09-14T21:12:04.828Z,19.36
2022-09-14T21:14:33.544Z,19.38
2022-09-14T21:17:02.039Z,19.37
2022-09-14T21:19:31.248Z,19.35
2022-09-14T21:21:59.958Z,19.35
2022-09-14T21:24:28.601Z,19.34
2022-09-14T21:26:57.645Z,19.32
2022-09-14T21:29:28.897Z,19.30
2022-09-14T21:31:59.729Z,19.19
2022-09-14T21:34:28.314Z,19.11
2022-09-14T21:36:57.048Z,19.07
2022-09-14T21:39:27.247Z,18.97
2022-09-14T21:41:59.344Z,18.94
2022-09-14T21:44:34.688Z,18.88
2022-09-14T21:47:04.961Z,18.88
2022-09-14T21:49:33.640Z,18.87
2022-09-14T21:52:02.589Z,18.85
2022-09-14T21:54:31.188Z,18.84
2022-09-14T21:56:59.944Z,18.83
2022-09-14T21:59:28.573Z,18.84
2022-09-14T22:01:57.248Z,18.85
2022-09-14T22:04:27.045Z,18.87
2022-09-14T22:06:57.303Z,18.82
2022-09-14T22:09:28.911Z,18.81
2022-09-14T22:11:58.027Z,18.81
2022-09-14T22:14:29.199Z,18.80
2022-09-14T22:16:57.946Z,18.77
2022-09-14T22:19:30.662Z,18.73
2022-09-14T22:21:59.634Z,18.71
2022-09-14T22:24:37.894Z,18.69
2022-09-14T22:27:09.835Z,18.74
2022-09-14T22:29:41.075Z,18.65
2022-09-14T22:32:11.074Z,18.56
2022-09-14T22:34:41.778Z,18.50
2022-09-14T22:37:10.726Z,18.51
2022-09-14T22:39:58.003Z,18.53
2022-09-14T22:42:28.044Z,18.52
2022-09-14T22:44:56.712Z,18.55
2022-09-14T22:47:25.471Z,18.57
2022-09-14T22:49:54.126Z,18.62
2022-09-14T22:52:24.129Z,18.61
2022-09-14T22:54:52.887Z,18.59
2022-09-14T22:57:22.692Z,18.59
2022-09-14T22:59:51.317Z,18.58
2022-09-14T23:02:19.931Z,18.59
2022-09-14T23:05:13.777Z,18.58
2022-09-14T23:07:42.338Z,18.53
2022-09-14T23:10:10.845Z,18.50
2022-09-14T23:12:39.537Z,18.49
2022-09-14T23:15:08.957Z,18.47
2022-09-14T23:17:37.674Z,18.47
2022-09-14T23:20:07.167Z,18.46
2022-09-14T23:22:36.342Z,18.49
2022-09-14T23:25:05.506Z,18.49
2022-09-14T23:27:37.310Z,18.45
2022-09-14T23:30:07.061Z,18.43
2022-09-14T23:32:35.671Z,18.48
2022-09-14T23:35:04.896Z,18.47
2022-09-14T23:37:34.246Z,18.46
2022-09-14T23:40:03.167Z,18.45
2022-09-14T23:42:31.972Z,18.44
2022-09-14T23:45:00.607Z,18.42
2022-09-14T23:47:29.208Z,18.43
2022-09-14T23:49:58.161Z,18.41
2022-09-14T23:52:26.993Z,18.36
2022-09-14T23:54:56.210Z,18.31
2022-09-14T23:57:24.828Z,18.29
2022-09-14T23:59:53.581Z,18.30
